Time;durP1;ratioP1;P1;durP2;ratioP2;P2;SDS_P1;SDS_P2;PMS_P1;PMS_P2;Temp;Humidity;BMP_temperature;BMP_pressure;BME280_temperature;BME280_humidity;BME280_pressure;Samples;Min_cycle;Max_cycle;Signal;HPM_P1;HPM_P2
2021/09/05 00:02:08;;;;;;;1999.90;999.90;;;;;;;13.52;79.41;98656.88;4993065;28;20448;-67
2021/09/05 00:04:35;;;;;;;1999.90;999.90;;;;;;;13.10;81.11;98657.59;4992324;28;20051;-67
2021/09/05 00:07:01;;;;;;;1999.90;999.90;;;;;;;13.64;79.40;98653.34;5002108;28;20057;-67
2021/09/05 00:09:28;;;;;;;1999.90;999.90;;;;;;;13.41;79.51;98661.19;4992548;28;20120;-67
2021/09/05 00:11:55;;;;;;;1999.90;999.90;;;;;;;13.24;80.18;98660.13;4993111;28;20050;-67
2021/09/05 00:14:21;;;;;;;1999.90;999.90;;;;;;;13.16;80.68;98658.19;4994587;28;20333;-67
2021/09/05 00:16:48;;;;;;;1999.90;999.90;;;;;;;12.86;81.25;98661.78;4992422;28;20050;-67
2021/09/05 00:19:15;;;;;;;1999.90;999.90;;;;;;;12.88;81.94;98655.91;4992442;28;20106;-67
2021/09/05 00:21:41;;;;;;;1999.90;999.90;;;;;;;12.50;83.01;98657.53;4993843;28;20054;-69
2021/09/05 00:24:08;;;;;;;1999.90;999.90;;;;;;;13.09;80.95;98657.94;4991423;28;20399;-67
2021/09/05 00:26:34;;;;;;;1999.90;999.90;;;;;;;12.98;81.44;98657.47;4992158;28;20443;-66
2021/09/05 00:29:01;;;;;;;1999.90;999.90;;;;;;;13.20;80.61;98656.38;4993465;28;20046;-66
2021/09/05 00:31:28;;;;;;;1999.90;999.90;;;;;;;12.44;83.38;98663.56;4991561;28;20101;-66
2021/09/05 00:33:58;;;;;;;1999.90;999.90;;;;;;;12.46;83.33;98658.47;4993923;28;20125;-67
2021/09/05 00:36:25;;;;;;;1999.90;999.90;;;;;;;12.77;81.87;98660.19;4991791;28;20042;-67
2021/09/05 00:38:52;;;;;;;1999.90;999.90;;;;;;;12.89;81.99;98663.06;4991995;28;20128;-67
2021/09/05 00:41:19;;;;;;;1999.90;999.90;;;;;;;13.37;79.45;98652.72;4993623;28;20334;-67
2021/09/05 00:44:11;;;;;;;1999.90;999.90;;;;;;;13.25;79.83;98660.91;4991205;28;20047;-67
2021/09/05 00:46:40;;;;;;;1999.90;999.90;;;;;;;13.17;79.57;98676.47;4991488;28;20054;-67
2021/09/05 00:49:08;;;;;;;1999.90;999.90;;;;;;;13.77;77.63;98662.53;4992947;28;20105;-67
2021/09/05 00:51:38;;;;;;;1999.90;999.90;;;;;;;12.90;80.84;98664.69;4991090;28;20109;-67
2021/09/05 00:54:07;;;;;;;1999.90;999.90;;;;;;;12.76;81.35;98664.09;4991977;28;20348;-67
2021/09/05 00:56:37;;;;;;;1999.90;999.90;;;;;;;13.42;79.36;98665.59;4991992;28;20092;-67
2021/09/05 00:59:11;;;;;;;1999.90;999.90;;;;;;;12.97;80.46;98675.28;4990935;28;20435;-67
2021/09/05 01:01:38;;;;;;;1999.90;999.90;;;;;;;13.45;79.12;98667.69;4976565;28;20058;-67
2021/09/05 01:04:06;;;;;;;1999.90;999.90;;;;;;;13.72;76.94;98661.59;4992169;28;20089;-67
2021/09/05 01:06:34;;;;;;;1999.90;999.90;;;;;;;13.34;78.80;98673.63;4992877;28;20117;-67
2021/09/05 01:09:03;;;;;;;1999.90;999.90;;;;;;;13.15;79.64;98674.03;4980625;28;20452;-67
2021/09/05 01:11:33;;;;;;;1999.90;999.90;;;;;;;12.25;83.36;98678.63;5021463;28;20504;-67
2021/09/05 01:14:05;;;;;;;1999.90;999.90;;;;;;;12.82;81.25;98677.47;4992157;28;20220;-67
2021/09/05 01:16:35;;;;;;;1999.90;999.90;;;;;;;12.51;81.99;98680.50;4992630;28;20042;-67
2021/09/05 01:19:11;;;;;;;1999.90;999.90;;;;;;;12.43;82.20;98684.09;4989047;28;20501;-67
2021/09/05 01:21:39;;;;;;;1999.90;999.90;;;;;;;12.10;83.63;98677.19;4991486;28;20444;-67
2021/09/05 01:24:07;;;;;;;1999.90;999.90;;;;;;;12.25;83.04;98675.84;4992440;28;20050;-68
2021/09/05 01:26:36;;;;;;;1999.90;999.90;;;;;;;11.87;84.47;98678.47;4990025;28;20078;-68
2021/09/05 01:29:04;;;;;;;1999.90;999.90;;;;;;;12.07;84.10;98677.84;4991158;28;20424;-69
2021/09/05 01:31:49;;;;;;;1999.90;999.90;;;;;;;13.32;78.97;98684.25;4991087;28;20100;-68
2021/09/05 01:34:18;;;;;;;1999.90;999.90;;;;;;;12.95;80.06;98689.50;4990465;28;20093;-68
2021/09/05 01:36:47;;;;;;;1999.90;999.90;;;;;;;12.61;81.49;98680.16;4991969;28;20428;-68
2021/09/05 01:39:15;;;;;;;1999.90;999.90;;;;;;;12.89;80.30;98690.81;4991870;28;20074;-67
2021/09/05 01:41:44;;;;;;;1999.90;999.90;;;;;;;13.18;78.54;98692.00;4990427;28;20356;-66
2021/09/05 01:44:13;;;;;;;1999.90;999.90;;;;;;;12.97;79.61;98691.94;4991919;28;20408;-67
2021/09/05 01:46:40;;;;;;;1999.90;999.90;;;;;;;13.59;76.88;98690.50;4990303;28;20120;-67
2021/09/05 01:49:07;;;;;;;1999.90;999.90;;;;;;;13.70;76.59;98686.13;4990711;28;20104;-66
2021/09/05 01:51:34;;;;;;;1999.90;999.90;;;;;;;14.12;75.25;98690.06;5002490;28;20046;-66
2021/09/05 01:54:02;;;;;;;1999.90;999.90;;;;;;;13.87;75.94;98681.59;4990734;28;20189;-68
2021/09/05 01:56:30;;;;;;;1999.90;999.90;;;;;;;13.14;78.07;98688.25;4990551;28;20054;-66
2021/09/05 01:58:58;;;;;;;1999.90;999.90;;;;;;;13.11;78.47;98691.72;4990920;28;20108;-69
2021/09/05 02:01:26;;;;;;;1999.90;999.90;;;;;;;13.14;78.68;98689.06;4989818;28;20058;-69
2021/09/05 02:03:53;;;;;;;1999.90;999.90;;;;;;;13.73;76.79;98688.25;4991811;28;20054;-68
2021/09/05 02:06:20;;;;;;;1999.90;999.90;;;;;;;13.68;76.64;98690.41;4990609;28;20475;-68
2021/09/05 02:08:47;;;;;;;1999.90;999.90;;;;;;;13.31;77.95;98690.94;5001917;28;20050;-67
2021/09/05 02:11:14;;;;;;;1999.90;999.90;;;;;;;13.70;76.41;98693.69;4990760;28;20114;-68
2021/09/05 02:13:41;;;;;;;1999.90;999.90;;;;;;;13.73;76.12;98696.56;4988291;28;20498;-68
2021/09/05 02:16:07;;;;;;;1999.90;999.90;;;;;;;13.82;76.04;98692.94;4989274;28;20038;-68
2021/09/05 02:18:34;;;;;;;1999.90;999.90;;;;;;;13.66;76.54;98699.06;4983812;28;20058;-68
2021/09/05 02:21:01;;;;;;;1999.90;999.90;;;;;;;13.13;78.33;98706.06;4984455;28;20058;-67
2021/09/05 02:23:30;;;;;;;1999.90;999.90;;;;;;;12.15;81.67;98709.44;4991686;28;20058;-68
2021/09/05 02:25:57;;;;;;;1999.90;999.90;;;;;;;12.07;82.78;98710.25;4990794;28;20054;-67
2021/09/05 02:28:24;;;;;;;1999.90;999.90;;;;;;;12.38;81.40;98698.16;4990712;28;20053;-67
2021/09/05 02:30:50;;;;;;;1999.90;999.90;;;;;;;12.30;82.20;98697.03;4992319;28;20116;-68
2021/09/05 02:33:17;;;;;;;1999.90;999.90;;;;;;;12.63;81.33;98694.50;5003058;28;20196;-67
2021/09/05 02:35:44;;;;;;;1999.90;999.90;;;;;;;12.39;81.85;98699.81;4990197;28;20042;-67
2021/09/05 02:38:11;;;;;;;1999.90;999.90;;;;;;;12.38;82.47;98698.16;4991535;28;20058;-67
2021/09/05 02:40:37;;;;;;;1999.90;999.90;;;;;;;12.90;80.21;98692.44;4988556;28;20046;-67
2021/09/05 02:43:04;;;;;;;1999.90;999.90;;;;;;;12.51;81.91;98708.25;4990311;28;20051;-67
2021/09/05 02:45:31;;;;;;;1999.90;999.90;;;;;;;12.23;82.18;98707.81;4990942;28;20054;-68
2021/09/05 02:47:58;;;;;;;1999.90;999.90;;;;;;;12.51;81.62;98717.38;4989876;28;20050;-67
2021/09/05 02:50:25;;;;;;;1999.90;999.90;;;;;;;12.14;83.04;98710.59;4992172;28;20117;-67
2021/09/05 02:52:52;;;;;;;1999.90;999.90;;;;;;;12.57;81.83;98712.47;4989089;28;20360;-67
2021/09/05 02:55:18;;;;;;;1999.90;999.90;;;;;;;12.80;80.02;98712.25;4990688;28;20428;-67
2021/09/05 02:57:45;;;;;;;1999.90;999.90;;;;;;;12.55;80.88;98706.44;4994853;28;20077;-68
2021/09/05 03:00:12;;;;;;;1999.90;999.90;;;;;;;12.84;80.31;98714.00;4993561;28;20090;-67
2021/09/05 03:02:40;;;;;;;1999.90;999.90;;;;;;;12.97;79.34;98712.19;4991117;28;20695;-67
2021/09/05 03:05:08;;;;;;;1999.90;999.90;;;;;;;12.66;80.63;98718.81;4989428;28;20410;-67
2021/09/05 03:07:35;;;;;;;1999.90;999.90;;;;;;;12.85;80.26;98723.16;4989293;28;20940;-68
2021/09/05 03:10:02;;;;;;;1999.90;999.90;;;;;;;12.69;81.13;98723.69;4991686;28;20046;-67
2021/09/05 03:12:29;;;;;;;1999.90;999.90;;;;;;;13.00;79.78;98725.38;4989219;28;20124;-67
2021/09/05 03:14:56;;;;;;;1999.90;999.90;;;;;;;11.38;85.44;98720.13;4989038;28;20526;-67
2021/09/05 03:17:22;;;;;;;1999.90;999.90;;;;;;;11.68;85.05;98725.88;4991032;28;20113;-67
2021/09/05 03:19:49;;;;;;;1999.90;999.90;;;;;;;11.95;84.59;98725.59;4989926;28;20054;-67
2021/09/05 03:22:16;;;;;;;1999.90;999.90;;;;;;;12.16;82.98;98719.38;4990111;28;20219;-67
2021/09/05 03:24:42;;;;;;;1999.90;999.90;;;;;;;12.44;81.92;98722.59;4990737;28;20082;-67
2021/09/05 03:27:09;;;;;;;1999.90;999.90;;;;;;;12.65;81.09;98722.75;4987729;28;20042;-67
2021/09/05 03:29:36;;;;;;;1999.90;999.90;;;;;;;12.37;82.26;98724.25;4986883;28;20205;-67
2021/09/05 03:32:03;;;;;;;1999.90;999.90;;;;;;;11.83;84.83;98733.69;4990255;28;20124;-68
2021/09/05 03:34:29;;;;;;;1999.90;999.90;;;;;;;12.25;82.90;98739.63;4989288;28;20446;-67
2021/09/05 03:36:56;;;;;;;1999.90;999.90;;;;;;;11.19;87.75;98725.91;4993690;28;20089;-67
2021/09/05 03:39:22;;;;;;;1999.90;999.90;;;;;;;12.18;83.75;98728.19;4992450;28;20081;-68
2021/09/05 03:41:49;;;;;;;1999.90;999.90;;;;;;;12.65;82.13;98735.78;4992279;28;20058;-67
2021/09/05 03:44:16;;;;;;;1999.90;999.90;;;;;;;12.44;81.60;98730.13;4993175;28;20146;-67
2021/09/05 03:46:42;;;;;;;1999.90;999.90;;;;;;;12.93;80.54;98736.19;4993209;28;20042;-67
2021/09/05 03:49:09;;;;;;;1999.90;999.90;;;;;;;13.24;78.74;98731.50;4994665;28;20108;-68
2021/09/05 03:51:35;;;;;;;1999.90;999.90;;;;;;;13.35;78.59;98739.16;4992492;28;20116;-68
2021/09/05 03:54:02;;;;;;;1999.90;999.90;;;;;;;12.88;79.82;98743.88;4992569;28;20069;-68
2021/09/05 03:56:29;;;;;;;1999.90;999.90;;;;;;;12.82;80.68;98743.25;4993248;28;20109;-67
2021/09/05 03:58:58;;;;;;;1999.90;999.90;;;;;;;12.18;83.01;98739.28;4992854;28;20418;-67
2021/09/05 04:01:24;;;;;;;1999.90;999.90;;;;;;;12.04;83.79;98746.94;4993895;28;20054;-67
2021/09/05 04:03:51;;;;;;;1999.90;999.90;;;;;;;11.84;85.10;98746.41;4993916;28;20121;-67
2021/09/05 04:06:19;;;;;;;1999.90;999.90;;;;;;;11.31;87.51;98751.03;4992164;28;20396;-67
2021/09/05 04:08:49;;;;;;;1999.90;999.90;;;;;;;11.90;84.53;98750.66;4993689;28;20073;-68
2021/09/05 04:11:16;;;;;;;1999.90;999.90;;;;;;;11.88;84.79;98754.88;4991706;28;20054;-68
2021/09/05 04:13:43;;;;;;;1999.90;999.90;;;;;;;12.01;84.28;98759.50;4993158;28;20042;-67
2021/09/05 04:16:09;;;;;;;1999.90;999.90;;;;;;;12.31;82.51;98766.03;4992843;28;20455;-67
2021/09/05 04:18:36;;;;;;;1999.90;999.90;;;;;;;12.43;82.06;98761.75;4991745;28;20443;-68
2021/09/05 04:21:03;;;;;;;1999.90;999.90;;;;;;;12.26;83.03;98768.16;4992089;28;20424;-68
2021/09/05 04:23:29;;;;;;;1999.90;999.90;;;;;;;11.69;85.21;98777.38;4992645;28;20105;-68
2021/09/05 04:25:56;;;;;;;1999.90;999.90;;;;;;;12.04;83.78;98772.69;4991934;28;20109;-68
2021/09/05 04:28:22;;;;;;;1999.90;999.90;;;;;;;11.25;87.79;98780.81;4976908;28;20069;-68
2021/09/05 04:30:49;;;;;;;1999.90;999.90;;;;;;;11.47;86.64;98784.63;4993340;28;20077;-68
2021/09/05 04:33:16;;;;;;;1999.90;999.90;;;;;;;11.81;85.59;98775.59;4991638;28;20105;-68
2021/09/05 04:35:42;;;;;;;1999.90;999.90;;;;;;;11.79;85.42;98785.38;5008819;28;20047;-68
2021/09/05 04:38:09;;;;;;;1999.90;999.90;;;;;;;11.63;86.15;98785.81;4992124;28;20050;-68
2021/09/05 04:40:35;;;;;;;1999.90;999.90;;;;;;;12.04;84.13;98788.53;4990835;28;20101;-68
2021/09/05 04:43:02;;;;;;;1999.90;999.90;;;;;;;11.39;87.18;98802.06;4992365;28;20050;-68
2021/09/05 04:45:29;;;;;;;1999.90;999.90;;;;;;;11.06;88.54;98794.91;4990954;28;20819;-68
2021/09/05 04:47:55;;;;;;;1999.90;999.90;;;;;;;11.53;87.25;98799.97;4991706;28;20046;-68
2021/09/05 04:50:22;;;;;;;1999.90;999.90;;;;;;;11.57;86.90;98800.97;4993004;28;20069;-68
2021/09/05 04:52:49;;;;;;;1999.90;999.90;;;;;;;11.10;89.19;98806.13;4990891;28;20045;-68
2021/09/05 04:55:15;;;;;;;1999.90;999.90;;;;;;;11.07;90.82;98798.47;4992601;28;20112;-68
2021/09/05 04:57:42;;;;;;;1999.90;999.90;;;;;;;10.64;92.09;98804.56;4995002;28;20053;-68
2021/09/05 05:00:09;;;;;;;1999.90;999.90;;;;;;;10.85;92.01;98799.34;5004101;28;20050;-68
2021/09/05 05:02:35;;;;;;;1999.90;999.90;;;;;;;10.62;92.08;98795.78;4991906;28;20050;-68
2021/09/05 05:05:03;;;;;;;1999.90;999.90;;;;;;;11.08;91.48;98808.41;4991642;28;20073;-68
2021/09/05 05:07:30;;;;;;;1999.90;999.90;;;;;;;11.89;87.37;98809.97;4991316;28;20042;-68
2021/09/05 05:09:56;;;;;;;1999.90;999.90;;;;;;;11.51;87.73;98812.50;4992266;28;20078;-68
2021/09/05 05:12:23;;;;;;;1999.90;999.90;;;;;;;11.56;87.37;98809.59;4990645;28;20050;-69
2021/09/05 05:14:50;;;;;;;1999.90;999.90;;;;;;;11.68;87.57;98820.84;4992946;28;20081;-68
2021/09/05 05:17:16;;;;;;;1999.90;999.90;;;;;;;11.77;86.88;98820.88;4989376;28;20097;-69
2021/09/05 05:19:43;;;;;;;1999.90;999.90;;;;;;;11.53;88.03;98813.81;4991012;28;20093;-68
2021/09/05 05:22:10;;;;;;;1999.90;999.90;;;;;;;11.74;86.95;98819.56;4991559;28;20058;-69
2021/09/05 05:24:39;;;;;;;1999.90;999.90;;;;;;;11.70;87.64;98821.38;4988638;28;20462;-68
2021/09/05 05:27:06;;;;;;;1999.90;999.90;;;;;;;11.19;89.82;98831.91;4977468;28;20042;-68
2021/09/05 05:29:33;;;;;;;1999.90;999.90;;;;;;;11.86;87.46;98823.69;4991296;28;20083;-68
2021/09/05 05:31:59;;;;;;;1999.90;999.90;;;;;;;11.82;86.76;98829.06;4990436;28;20062;-69
2021/09/05 05:34:26;;;;;;;1999.90;999.90;;;;;;;11.67;87.30;98829.50;4992549;28;20108;-68
2021/09/05 05:36:53;;;;;;;1999.90;999.90;;;;;;;12.28;85.63;98832.41;4988784;28;20054;-68
2021/09/05 05:39:19;;;;;;;1999.90;999.90;;;;;;;12.06;85.91;98833.34;4991629;28;20431;-68
2021/09/05 05:41:46;;;;;;;1999.90;999.90;;;;;;;12.08;86.29;98844.94;4992647;28;20078;-68
2021/09/05 05:44:12;;;;;;;1999.90;999.90;;;;;;;11.52;88.52;98836.28;4990225;28;20336;-68
2021/09/05 05:46:39;;;;;;;1999.90;999.90;;;;;;;11.89;86.50;98832.16;4990101;28;20101;-68
2021/09/05 05:49:06;;;;;;;1999.90;999.90;;;;;;;12.13;86.00;98839.25;4989005;28;20077;-68
2021/09/05 05:51:32;;;;;;;1999.90;999.90;;;;;;;12.09;85.92;98841.06;4983454;28;20502;-68
2021/09/05 05:53:59;;;;;;;1999.90;999.90;;;;;;;11.83;86.52;98850.06;4992400;28;20104;-67
2021/09/05 05:56:26;;;;;;;1999.90;999.90;;;;;;;12.56;84.39;98840.41;4988824;28;20333;-68
2021/09/05 05:58:52;;;;;;;1999.90;999.90;;;;;;;12.25;86.17;98849.69;4993097;28;20435;-68
2021/09/05 06:01:19;;;;;;;1999.90;999.90;;;;;;;12.78;84.13;98853.28;4992062;28;20058;-67
2021/09/05 06:03:46;;;;;;;1999.90;999.90;;;;;;;12.41;83.74;98858.34;4990551;28;20443;-68
2021/09/05 06:06:13;;;;;;;1999.90;999.90;;;;;;;12.28;84.97;98860.13;4991565;28;20069;-68
2021/09/05 06:08:40;;;;;;;1999.90;999.90;;;;;;;12.53;85.01;98864.06;4991706;28;20112;-68
2021/09/05 06:11:07;;;;;;;1999.90;999.90;;;;;;;12.72;84.66;98862.94;4986567;28;20050;-68
2021/09/05 06:13:33;;;;;;;1999.90;999.90;;;;;;;12.86;82.54;98866.31;4991635;28;20050;-68
2021/09/05 06:16:00;;;;;;;1999.90;999.90;;;;;;;12.98;82.44;98860.94;4989854;28;20546;-68
2021/09/05 06:18:27;;;;;;;1999.90;999.90;;;;;;;12.75;82.54;98868.63;4990677;28;20070;-68
2021/09/05 06:20:54;;;;;;;1999.90;999.90;;;;;;;13.30;81.20;98867.06;4992066;28;20101;-69
2021/09/05 06:23:21;;;;;;;1999.90;999.90;;;;;;;13.66;79.62;98874.16;4988656;28;20046;-68
2021/09/05 06:25:47;;;;;;;1999.90;999.90;;;;;;;13.20;80.41;98878.53;4980189;28;20050;-69
2021/09/05 06:28:14;;;;;;;1999.90;999.90;;;;;;;13.02;81.20;98878.53;4991544;28;20050;-68
2021/09/05 06:30:41;;;;;;;1999.90;999.90;;;;;;;13.50;79.27;98881.41;4988434;28;20050;-69
2021/09/05 06:33:07;;;;;;;1999.90;999.90;;;;;;;13.47;79.07;98882.06;4991880;28;20050;-68
2021/09/05 06:35:34;;;;;;;1999.90;999.90;;;;;;;13.62;79.22;98883.47;4989905;28;20050;-68
2021/09/05 06:38:01;;;;;;;1999.90;999.90;;;;;;;13.84;77.54;98888.78;4990806;28;20112;-68
2021/09/05 06:40:28;;;;;;;1999.90;999.90;;;;;;;13.97;78.87;98884.13;4991638;28;20042;-68
2021/09/05 06:42:55;;;;;;;1999.90;999.90;;;;;;;13.60;78.42;98892.16;4990077;28;20046;-68
2021/09/05 06:45:26;;;;;;;1999.90;999.90;;;;;;;13.87;77.55;98890.91;4991112;28;20459;-68
2021/09/05 06:47:53;;;;;;;1999.90;999.90;;;;;;;14.16;76.50;98894.03;4991221;28;20050;-68
2021/09/05 06:50:19;;;;;;;1999.90;999.90;;;;;;;15.01;74.09;98895.69;4989112;28;20082;-68
2021/09/05 06:52:46;;;;;;;1999.90;999.90;;;;;;;15.07;73.36;98902.66;4991754;28;20046;-68
2021/09/05 06:55:13;;;;;;;1999.90;999.90;;;;;;;15.08;74.48;98904.31;4990761;28;20444;-68
2021/09/05 06:57:39;;;;;;;1999.90;999.90;;;;;;;14.73;74.47;98915.75;4989892;28;20112;-68
2021/09/05 07:00:07;;;;;;;1999.90;999.90;;;;;;;15.17;74.41;98917.31;4983709;28;20121;-68
2021/09/05 07:02:34;;;;;;;1999.90;999.90;;;;;;;15.65;72.79;98915.84;4988765;28;20089;-68
2021/09/05 07:05:02;;;;;;;1999.90;999.90;;;;;;;14.76;74.74;98920.63;4989933;28;20057;-68
2021/09/05 07:07:44;;;;;;;1999.90;999.90;;;;;;;15.60;72.74;98929.97;4990444;28;20051;-68
2021/09/05 07:10:11;;;;;;;1999.90;999.90;;;;;;;16.29;69.42;98928.31;4990357;28;20351;-68
2021/09/05 07:12:40;;;;;;;1999.90;999.90;;;;;;;16.58;69.82;98928.41;4993005;28;20056;-68
2021/09/05 07:15:08;;;;;;;1999.90;999.90;;;;;;;17.47;66.11;98929.41;4994368;28;20502;-68
2021/09/05 07:17:34;;;;;;;1999.90;999.90;;;;;;;15.79;67.77;98941.44;4992145;28;20448;-68
2021/09/05 07:20:01;;;;;;;1999.90;999.90;;;;;;;15.27;70.17;98948.38;4993982;28;20054;-67
2021/09/05 07:22:28;;;;;;;1999.90;999.90;;;;;;;15.71;69.96;98942.31;4987304;28;20334;-68
2021/09/05 07:24:55;;;;;;;1999.90;999.90;;;;;;;16.10;70.13;98936.47;4984184;28;20104;-68
2021/09/05 07:27:22;;;;;;;1999.90;999.90;;;;;;;15.81;69.36;98947.50;4994279;28;20047;-68
2021/09/05 07:29:48;;;;;;;1999.90;999.90;;;;;;;15.93;68.79;98949.47;4992625;28;20351;-68
2021/09/05 07:32:15;;;;;;;1999.90;999.90;;;;;;;17.01;68.40;98954.84;4994245;28;20124;-68
2021/09/05 07:34:41;;;;;;;1999.90;999.90;;;;;;;17.31;66.05;98960.91;4994041;28;20121;-68
2021/09/05 07:37:08;;;;;;;1999.90;999.90;;;;;;;16.87;65.76;98961.66;5006962;28;20042;-68
2021/09/05 07:39:35;;;;;;;1999.90;999.90;;;;;;;16.60;67.23;98959.56;4993608;28;20054;-68
2021/09/05 07:42:02;;;;;;;1999.90;999.90;;;;;;;16.02;67.36;98957.75;4993814;28;20197;-67
2021/09/05 07:44:29;;;;;;;1999.90;999.90;;;;;;;16.96;66.45;98963.50;4992651;28;20050;-67
2021/09/05 07:46:55;;;;;;;1999.90;999.90;;;;;;;17.01;67.23;98963.22;4994282;28;20109;-67
2021/09/05 07:49:22;;;;;;;1999.90;999.90;;;;;;;16.83;64.86;98973.84;4993561;28;20046;-67
2021/09/05 07:51:49;;;;;;;1999.90;999.90;;;;;;;17.28;64.78;98980.38;4992972;28;20062;-67
2021/09/05 07:54:15;;;;;;;1999.90;999.90;;;;;;;17.94;63.71;98977.03;4994062;28;20054;-67
2021/09/05 07:56:42;;;;;;;1999.90;999.90;;;;;;;17.27;62.09;98981.53;4992790;28;20121;-67
2021/09/05 07:59:09;;;;;;;1999.90;999.90;;;;;;;17.84;61.07;98987.91;4993812;28;20054;-66
2021/09/05 08:01:36;;;;;;;1999.90;999.90;;;;;;;16.96;62.23;98994.22;4993568;28;20058;-67
2021/09/05 08:04:08;;;;;;;1999.90;999.90;;;;;;;17.33;61.31;98985.69;4992054;28;20046;-67
2021/09/05 08:06:34;;;;;;;1999.90;999.90;;;;;;;18.08;60.13;98986.97;4993982;28;20101;-67
2021/09/05 08:09:01;;;;;;;1999.90;999.90;;;;;;;18.01;61.05;98997.97;4992010;28;20565;-67
2021/09/05 08:11:28;;;;;;;1999.90;999.90;;;;;;;18.06;59.92;98995.72;4985688;28;20329;-67
2021/09/05 08:13:54;;;;;;;1999.90;999.90;;;;;;;17.78;58.98;98995.75;4993470;28;20071;-66
2021/09/05 08:16:21;;;;;;;1999.90;999.90;;;;;;;17.69;61.96;99003.50;4990079;28;20054;-67
2021/09/05 08:18:48;;;;;;;1999.90;999.90;;;;;;;17.71;60.36;99009.53;4992602;28;20058;-67
2021/09/05 08:21:14;;;;;;;1999.90;999.90;;;;;;;18.54;57.89;99004.09;4982453;28;20055;-67
2021/09/05 08:23:42;;;;;;;1999.90;999.90;;;;;;;18.18;61.34;99014.41;4985718;28;20116;-68
2021/09/05 08:26:15;;;;;;;1999.90;999.90;;;;;;;18.01;58.17;99007.16;4993945;28;20050;-68
2021/09/05 08:28:41;;;;;;;1999.90;999.90;;;;;;;17.38;60.47;99013.41;4991537;28;20117;-68
2021/09/05 08:31:08;;;;;;;1999.90;999.90;;;;;;;17.62;58.58;99025.66;4992628;28;20042;-67
2021/09/05 08:33:35;;;;;;;1999.90;999.90;;;;;;;17.93;57.80;99014.56;4993372;28;20057;-68
2021/09/05 08:36:03;;;;;;;1999.90;999.90;;;;;;;18.86;55.24;99020.88;4990978;28;20577;-66
2021/09/05 08:38:31;;;;;;;1999.90;999.90;;;;;;;18.98;54.00;99012.34;4991840;28;20435;-67
2021/09/05 08:40:58;;;;;;;1999.90;999.90;;;;;;;18.23;54.06;99027.31;4992348;28;20050;-66
2021/09/05 08:43:25;;;;;;;1999.90;999.90;;;;;;;18.72;56.92;99028.91;4989863;28;20440;-66
2021/09/05 08:45:52;;;;;;;1999.90;999.90;;;;;;;18.47;53.75;99023.53;4992184;28;20102;-66
2021/09/05 08:48:20;;;;;;;1999.90;999.90;;;;;;;18.69;54.61;99035.25;4992664;28;20042;-66
2021/09/05 08:50:49;;;;;;;1999.90;999.90;;;;;;;18.58;53.58;99026.56;4992514;28;20050;-66
2021/09/05 08:53:16;;;;;;;1999.90;999.90;;;;;;;18.73;52.22;99036.97;4992539;28;20061;-66
2021/09/05 08:55:45;;;;;;;1999.90;999.90;;;;;;;19.33;52.29;99035.91;4992415;28;20054;-66
2021/09/05 08:58:12;;;;;;;1999.90;999.90;;;;;;;18.30;54.43;99036.72;4991346;28;20077;-66
2021/09/05 09:00:41;;;;;;;1999.90;999.90;;;;;;;18.82;51.81;99033.97;4993027;28;20384;-67
2021/09/05 09:03:18;;;;;;;1999.90;999.90;;;;;;;18.24;52.95;99034.56;4990888;28;20137;-67
2021/09/05 09:05:51;;;;;;;1999.90;999.90;;;;;;;18.86;53.98;99037.69;4992214;28;20078;-66
2021/09/05 09:08:19;;;;;;;1999.90;999.90;;;;;;;18.82;53.02;99042.38;4992203;28;20109;-66
2021/09/05 09:10:57;;;;;;;1999.90;999.90;;;;;;;19.25;51.66;99037.75;4990260;28;20054;-67
2021/09/05 09:13:28;;;;;;;1999.90;999.90;;;;;;;19.60;48.89;99036.88;4991348;28;20046;-67
2021/09/05 09:15:57;;;;;;;1999.90;999.90;;;;;;;19.48;49.99;99046.25;4991565;28;20443;-66
2021/09/05 09:18:26;;;;;;;1999.90;999.90;;;;;;;19.57;48.71;99048.81;4990408;28;20332;-66
2021/09/05 09:20:57;;;;;;;1999.90;999.90;;;;;;;20.03;50.87;99040.53;4991898;28;20050;-66
2021/09/05 09:23:32;;;;;;;1999.90;999.90;;;;;;;19.86;47.44;99041.84;4992130;28;20436;-67
2021/09/05 09:26:01;;;;;;;1999.90;999.90;;;;;;;19.69;48.32;99045.06;4991606;28;20100;-67
2021/09/05 09:28:31;;;;;;;1999.90;999.90;;;;;;;19.24;49.50;99036.13;4992803;28;20375;-66
2021/09/05 09:31:01;;;;;;;1999.90;999.90;;;;;;;19.60;52.02;99041.69;4990774;28;20054;-67
2021/09/05 09:33:29;;;;;;;1999.90;999.90;;;;;;;19.88;48.77;99047.06;4989849;28;20105;-66
2021/09/05 09:36:00;;;;;;;1999.90;999.90;;;;;;;20.34;48.28;99047.09;4991192;28;20054;-67
2021/09/05 09:38:28;;;;;;;1999.90;999.90;;;;;;;19.56;48.26;99043.59;4989951;28;20046;-68
2021/09/05 09:41:09;;;;;;;1999.90;999.90;;;;;;;20.20;47.23;99047.69;4990734;28;20054;-68
2021/09/05 09:43:49;;;;;;;1999.90;999.90;;;;;;;19.52;47.45;99049.13;4992071;28;20054;-68
2021/09/05 09:46:22;;;;;;;1999.90;999.90;;;;;;;21.06;46.07;99053.09;4990005;28;20096;-68
2021/09/05 09:48:51;;;;;;;1999.90;999.90;;;;;;;22.21;42.82;99043.25;4989176;28;20039;-68
2021/09/05 09:51:18;;;;;;;1999.90;999.90;;;;;;;20.92;44.23;99048.06;4993031;28;20410;-68
2021/09/05 09:53:46;;;;;;;1999.90;999.90;;;;;;;19.15;46.59;99057.97;4990893;28;20073;-68
2021/09/05 09:56:16;;;;;;;1999.90;999.90;;;;;;;19.63;49.21;99046.53;4989479;28;20050;-68
2021/09/05 09:58:48;;;;;;;1999.90;999.90;;;;;;;18.94;47.16;99045.06;4991094;28;20046;-67
2021/09/05 10:01:19;;;;;;;;;;;;;;;18.95;45.53;99049.50;4990054;28;20042;-68
2021/09/05 10:03:50;;;;;;;1999.90;999.90;;;;;;;18.98;50.71;99045.97;4990844;28;19948;-68
2021/09/05 10:06:18;;;;;;;1999.90;999.90;;;;;;;19.92;49.26;99047.13;4991380;28;20050;-68
2021/09/05 10:08:46;;;;;;;1999.90;999.90;;;;;;;20.62;45.09;99043.16;4988808;28;20076;-69
2021/09/05 10:11:16;;;;;;;1999.90;999.90;;;;;;;20.13;47.04;99046.75;4991764;28;20104;-67
2021/09/05 10:13:43;;;;;;;1999.90;999.90;;;;;;;20.44;44.67;99042.03;4989593;28;20174;-68
2021/09/05 10:16:11;;;;;;;1999.90;999.90;;;;;;;19.84;44.93;99044.22;4989960;28;20050;-66
2021/09/05 10:18:42;;;;;;;1999.90;999.90;;;;;;;19.66;46.70;99052.22;4980907;28;20050;-66
2021/09/05 10:21:11;;;;;;;1999.90;999.90;;;;;;;19.70;46.16;99046.69;4990639;28;20065;-66
2021/09/05 10:23:37;;;;;;;1999.90;999.90;;;;;;;19.96;44.91;99057.22;4990407;28;20054;-66
2021/09/05 10:26:06;;;;;;;1999.90;999.90;;;;;;;19.31;47.68;99058.72;4990986;28;20046;-66
2021/09/05 10:28:34;;;;;;;1999.90;999.90;;;;;;;20.19;47.19;99057.28;4990318;28;20046;-67
2021/09/05 10:31:01;;;;;;;1999.90;999.90;;;;;;;20.64;46.97;99054.81;4991163;28;20088;-67
2021/09/05 10:33:46;;;;;;;1999.90;999.90;;;;;;;20.97;41.78;99046.94;4989961;28;20054;-68
2021/09/05 10:36:15;;;;;;;1999.90;999.90;;;;;;;20.92;43.15;99053.69;4989922;28;20046;-67
2021/09/05 10:38:43;;;;;;;1999.90;999.90;;;;;;;19.78;44.42;99051.28;4990700;28;20081;-66
2021/09/05 10:41:35;;;;;;;1999.90;999.90;;;;;;;20.98;44.26;99051.38;4989612;28;20050;-66
2021/09/05 10:44:09;;;;;;;1999.90;999.90;;;;;;;20.18;43.27;99052.84;4980307;28;20054;-67
2021/09/05 10:46:39;;;;;;;1999.90;999.90;;;;;;;21.13;48.04;99053.19;4995427;28;20078;-67
2021/09/05 10:49:07;;;;;;;1999.90;999.90;;;;;;;20.57;44.76;99055.53;4993481;28;20042;-68
2021/09/05 10:51:37;;;;;;;1999.90;999.90;;;;;;;20.32;45.03;99057.91;4993396;28;20054;-66
2021/09/05 10:54:07;;;;;;;1999.90;999.90;;;;;;;21.72;42.59;99050.78;4995897;28;20428;-66
2021/09/05 10:56:43;;;;;;;1999.90;999.90;;;;;;;21.39;43.00;99046.72;4991735;28;20046;-66
2021/09/05 10:59:19;;;;;;;1999.90;999.90;;;;;;;21.19;40.95;99056.50;4999976;28;20050;-66